Aviation Digital Data Service (ADDS)

Output produced by METARs form (2129 UTC 17 June 2019)
found at http://www.aviationweather.gov/metar/data/
 
METAR text: LOWS 172120Z AUTO 23002KT 9999 SCT250 18/14 Q1017
Conditions at: LOWS (SALZBURG AIRPORT, AT) observed 2120 UTC 17 June 2019
Temperature: 18.0°C (64°F)
Dewpoint: 14.0°C (57°F) [RH = 77%]
Pressure (altimeter): 30.03 inches Hg (1017.0 mb)
Winds: from the SW (230 degrees) at 2 MPH (2 knots; 1.0 m/s)
Visibility: 6 or more miles (10+ km)
Ceiling: at least 12,000 feet AGL
Clouds: scattered clouds at 25000 feet AGL
Weather: no significant weather observed at this time

METAR text: LOWS 172050Z VRB01KT CAVOK 18/15 Q1017
Conditions at: LOWS (SALZBURG AIRPORT, AT) observed 2050 UTC 17 June 2019
Temperature: 18.0°C (64°F)
Dewpoint: 15.0°C (59°F) [RH = 83%]
Pressure (altimeter): 30.03 inches Hg (1017.0 mb)
Winds: variable direction winds at 1 MPH (1 knots; 0.5 m/s)
Visibility: 6 or more miles (10+ km)
Ceiling: ceiling and visibility are OK
Clouds: unknown
Weather: no significant weather observed at this time

METAR text: LOWS 172020Z VRB01KT CAVOK 19/15 Q1017 NOSIG
Conditions at: LOWS (SALZBURG AIRPORT, AT) observed 2020 UTC 17 June 2019
Temperature: 19.0°C (66°F)
Dewpoint: 15.0°C (59°F) [RH = 78%]
Pressure (altimeter): 30.03 inches Hg (1017.0 mb)
Winds: variable direction winds at 1 MPH (1 knots; 0.5 m/s)
Visibility: 6 or more miles (10+ km)
Ceiling: ceiling and visibility are OK
Clouds: unknown
Weather: no significant weather observed at this time

METAR text: LOWS 171950Z 29002KT CAVOK 20/15 Q1017 NOSIG
Conditions at: LOWS (SALZBURG AIRPORT, AT) observed 1950 UTC 17 June 2019
Temperature: 20.0°C (68°F)
Dewpoint: 15.0°C (59°F) [RH = 73%]
Pressure (altimeter): 30.03 inches Hg (1017.0 mb)
Winds: from the WNW (290 degrees) at 2 MPH (2 knots; 1.0 m/s)
Visibility: 6 or more miles (10+ km)
Ceiling: ceiling and visibility are OK
Clouds: unknown
Weather: no significant weather observed at this time

METAR text: LOWS 171920Z 07005KT 040V130 9999 FEW050 BKN300 20/15 Q1017 NOSIG
Conditions at: LOWS (SALZBURG AIRPORT, AT) observed 1920 UTC 17 June 2019
Temperature: 20.0°C (68°F)
Dewpoint: 15.0°C (59°F) [RH = 73%]
Pressure (altimeter): 30.03 inches Hg (1017.0 mb)
Winds: from the ENE (70 degrees) at 6 MPH (5 knots; 2.6 m/s)
Visibility: 6 or more miles (10+ km)
Ceiling: 30000 feet AGL
Clouds: few clouds at 5000 feet AGL
broken clouds at 30000 feet AGL
Weather: no significant weather observed at this time

METAR text: LOWS 171850Z 04007KT 9999 FEW050 BKN300 22/16 Q1017 BECMG 15005KT
Conditions at: LOWS (SALZBURG AIRPORT, AT) observed 1850 UTC 17 June 2019
Temperature: 22.0°C (72°F)
Dewpoint: 16.0°C (61°F) [RH = 69%]
Pressure (altimeter): 30.03 inches Hg (1017.0 mb)
Winds: from the NE (40 degrees) at 8 MPH (7 knots; 3.6 m/s)
Visibility: 6 or more miles (10+ km)
Ceiling: 30000 feet AGL
Clouds: few clouds at 5000 feet AGL
broken clouds at 30000 feet AGL
Weather: no significant weather observed at this time

METAR text: LOWS 171820Z 04006KT 010V090 CAVOK 23/14 Q1017 NOSIG
Conditions at: LOWS (SALZBURG AIRPORT, AT) observed 1820 UTC 17 June 2019
Temperature: 23.0°C (73°F)
Dewpoint: 14.0°C (57°F) [RH = 57%]
Pressure (altimeter): 30.03 inches Hg (1017.0 mb)
Winds: from the NE (40 degrees) at 7 MPH (6 knots; 3.1 m/s)
Visibility: 6 or more miles (10+ km)
Ceiling: ceiling and visibility are OK
Clouds: unknown
Weather: no significant weather observed at this time

METAR text: LOWS 171750Z 05007KT 020V090 9999 FEW050 BKN300 24/14 Q1017 NOSIG
Conditions at: LOWS (SALZBURG AIRPORT, AT) observed 1750 UTC 17 June 2019
Temperature: 24.0°C (75°F)
Dewpoint: 14.0°C (57°F) [RH = 54%]
Pressure (altimeter): 30.03 inches Hg (1017.0 mb)
Winds: from the NE (50 degrees) at 8 MPH (7 knots; 3.6 m/s)
Visibility: 6 or more miles (10+ km)
Ceiling: 30000 feet AGL
Clouds: few clouds at 5000 feet AGL
broken clouds at 30000 feet AGL
Weather: no significant weather observed at this time

METAR text: LOWS 171720Z 05006KT 010V070 9999 FEW050 BKN300 24/14 Q1017 NOSIG
Conditions at: LOWS (SALZBURG AIRPORT, AT) observed 1720 UTC 17 June 2019
Temperature: 24.0°C (75°F)
Dewpoint: 14.0°C (57°F) [RH = 54%]
Pressure (altimeter): 30.03 inches Hg (1017.0 mb)
Winds: from the NE (50 degrees) at 7 MPH (6 knots; 3.1 m/s)
Visibility: 6 or more miles (10+ km)
Ceiling: 30000 feet AGL
Clouds: few clouds at 5000 feet AGL
broken clouds at 30000 feet AGL
Weather: no significant weather observed at this time

METAR text: LOWS 171650Z 04009KT 9999 FEW050 BKN300 24/14 Q1017 NOSIG
Conditions at: LOWS (SALZBURG AIRPORT, AT) observed 1650 UTC 17 June 2019
Temperature: 24.0°C (75°F)
Dewpoint: 14.0°C (57°F) [RH = 54%]
Pressure (altimeter): 30.03 inches Hg (1017.0 mb)
Winds: from the NE (40 degrees) at 10 MPH (9 knots; 4.6 m/s)
Visibility: 6 or more miles (10+ km)
Ceiling: 30000 feet AGL
Clouds: few clouds at 5000 feet AGL
broken clouds at 30000 feet AGL
Weather: no significant weather observed at this time

METAR text: LOWS 171620Z 04011KT 9999 FEW050 BKN300 24/14 Q1017 NOSIG
Conditions at: LOWS (SALZBURG AIRPORT, AT) observed 1620 UTC 17 June 2019
Temperature: 24.0°C (75°F)
Dewpoint: 14.0°C (57°F) [RH = 54%]
Pressure (altimeter): 30.03 inches Hg (1017.0 mb)
Winds: from the NE (40 degrees) at 13 MPH (11 knots; 5.7 m/s)
Visibility: 6 or more miles (10+ km)
Ceiling: 30000 feet AGL
Clouds: few clouds at 5000 feet AGL
broken clouds at 30000 feet AGL
Weather: no significant weather observed at this time

METAR text: LOWS 171550Z 04011KT 9999 FEW050 BKN300 24/14 Q1017 NOSIG
Conditions at: LOWS (SALZBURG AIRPORT, AT) observed 1550 UTC 17 June 2019
Temperature: 24.0°C (75°F)
Dewpoint: 14.0°C (57°F) [RH = 54%]
Pressure (altimeter): 30.03 inches Hg (1017.0 mb)
Winds: from the NE (40 degrees) at 13 MPH (11 knots; 5.7 m/s)
Visibility: 6 or more miles (10+ km)
Ceiling: 30000 feet AGL
Clouds: few clouds at 5000 feet AGL
broken clouds at 30000 feet AGL
Weather: no significant weather observed at this time

METAR text: LOWS 171520Z 03010KT 360V060 9999 FEW050 BKN300 25/14 Q1017 NOSIG
Conditions at: LOWS (SALZBURG AIRPORT, AT) observed 1520 UTC 17 June 2019
Temperature: 25.0°C (77°F)
Dewpoint: 14.0°C (57°F) [RH = 50%]
Pressure (altimeter): 30.03 inches Hg (1017.0 mb)
Winds: from the NNE (30 degrees) at 12 MPH (10 knots; 5.1 m/s)
Visibility: 6 or more miles (10+ km)
Ceiling: 30000 feet AGL
Clouds: few clouds at 5000 feet AGL
broken clouds at 30000 feet AGL
Weather: no significant weather observed at this time

METAR text: LOWS 171450Z 05008KT 010V080 9999 FEW050 BKN300 25/14 Q1017 NOSIG
Conditions at: LOWS (SALZBURG AIRPORT, AT) observed 1450 UTC 17 June 2019
Temperature: 25.0°C (77°F)
Dewpoint: 14.0°C (57°F) [RH = 50%]
Pressure (altimeter): 30.03 inches Hg (1017.0 mb)
Winds: from the NE (50 degrees) at 9 MPH (8 knots; 4.1 m/s)
Visibility: 6 or more miles (10+ km)
Ceiling: 30000 feet AGL
Clouds: few clouds at 5000 feet AGL
broken clouds at 30000 feet AGL
Weather: no significant weather observed at this time

METAR text: LOWS 171420Z 03012KT 350V050 9999 FEW045 BKN300 25/14 Q1018 NOSIG
Conditions at: LOWS (SALZBURG AIRPORT, AT) observed 1420 UTC 17 June 2019
Temperature: 25.0°C (77°F)
Dewpoint: 14.0°C (57°F) [RH = 50%]
Pressure (altimeter): 30.06 inches Hg (1018.0 mb)
Winds: from the NNE (30 degrees) at 14 MPH (12 knots; 6.2 m/s)
Visibility: 6 or more miles (10+ km)
Ceiling: 30000 feet AGL
Clouds: few clouds at 4500 feet AGL
broken clouds at 30000 feet AGL
Weather: no significant weather observed at this time

METAR text: LOWS 171350Z 36010KT 9999 FEW045 BKN300 25/15 Q1018 NOSIG
Conditions at: LOWS (SALZBURG AIRPORT, AT) observed 1350 UTC 17 June 2019
Temperature: 25.0°C (77°F)
Dewpoint: 15.0°C (59°F) [RH = 54%]
Pressure (altimeter): 30.06 inches Hg (1018.0 mb)
Winds: from the N (360 degrees) at 12 MPH (10 knots; 5.1 m/s)
Visibility: 6 or more miles (10+ km)
Ceiling: 30000 feet AGL
Clouds: few clouds at 4500 feet AGL
broken clouds at 30000 feet AGL
Weather: no significant weather observed at this time

METAR text: LOWS 171320Z 03010KT 360V060 9999 FEW045 BKN300 24/15 Q1018 NOSIG
Conditions at: LOWS (SALZBURG AIRPORT, AT) observed 1320 UTC 17 June 2019
Temperature: 24.0°C (75°F)
Dewpoint: 15.0°C (59°F) [RH = 57%]
Pressure (altimeter): 30.06 inches Hg (1018.0 mb)
Winds: from the NNE (30 degrees) at 12 MPH (10 knots; 5.1 m/s)
Visibility: 6 or more miles (10+ km)
Ceiling: 30000 feet AGL
Clouds: few clouds at 4500 feet AGL
broken clouds at 30000 feet AGL
Weather: no significant weather observed at this time

METAR text: LOWS 171250Z 02009KT 9999 FEW040 SCT045 BKN300 25/15 Q1019 NOSIG
Conditions at: LOWS (SALZBURG AIRPORT, AT) observed 1250 UTC 17 June 2019
Temperature: 25.0°C (77°F)
Dewpoint: 15.0°C (59°F) [RH = 54%]
Pressure (altimeter): 30.09 inches Hg (1019.0 mb)
Winds: from the NNE (20 degrees) at 10 MPH (9 knots; 4.6 m/s)
Visibility: 6 or more miles (10+ km)
Ceiling: 30000 feet AGL
Clouds: few clouds at 4000 feet AGL
scattered clouds at 4500 feet AGL
broken clouds at 30000 feet AGL
Weather: no significant weather observed at this time

METAR text: LOWS 171220Z 02011KT 9999 FEW040 SCT045 BKN300 25/14 Q1019 NOSIG
Conditions at: LOWS (SALZBURG AIRPORT, AT) observed 1220 UTC 17 June 2019
Temperature: 25.0°C (77°F)
Dewpoint: 14.0°C (57°F) [RH = 50%]
Pressure (altimeter): 30.09 inches Hg (1019.0 mb)
Winds: from the NNE (20 degrees) at 13 MPH (11 knots; 5.7 m/s)
Visibility: 6 or more miles (10+ km)
Ceiling: 30000 feet AGL
Clouds: few clouds at 4000 feet AGL
scattered clouds at 4500 feet AGL
broken clouds at 30000 feet AGL
Weather: no significant weather observed at this time

METAR text: LOWS 171150Z 02009KT 9999 FEW040 SCT045 BKN300 24/15 Q1019 NOSIG
Conditions at: LOWS (SALZBURG AIRPORT, AT) observed 1150 UTC 17 June 2019
Temperature: 24.0°C (75°F)
Dewpoint: 15.0°C (59°F) [RH = 57%]
Pressure (altimeter): 30.09 inches Hg (1019.0 mb)
Winds: from the NNE (20 degrees) at 10 MPH (9 knots; 4.6 m/s)
Visibility: 6 or more miles (10+ km)
Ceiling: 30000 feet AGL
Clouds: few clouds at 4000 feet AGL
scattered clouds at 4500 feet AGL
broken clouds at 30000 feet AGL
Weather: no significant weather observed at this time

METAR text: LOWS 171120Z 04008KT 9999 FEW038 SCT045 BKN300 24/14 Q1019 NOSIG
Conditions at: LOWS (SALZBURG AIRPORT, AT) observed 1120 UTC 17 June 2019
Temperature: 24.0°C (75°F)
Dewpoint: 14.0°C (57°F) [RH = 54%]
Pressure (altimeter): 30.09 inches Hg (1019.0 mb)
Winds: from the NE (40 degrees) at 9 MPH (8 knots; 4.1 m/s)
Visibility: 6 or more miles (10+ km)
Ceiling: 30000 feet AGL
Clouds: few clouds at 3800 feet AGL
scattered clouds at 4500 feet AGL
broken clouds at 30000 feet AGL
Weather: no significant weather observed at this time

METAR text: LOWS 171050Z 02009KT 9999 FEW038 SCT045 BKN300 24/15 Q1019 NOSIG
Conditions at: LOWS (SALZBURG AIRPORT, AT) observed 1050 UTC 17 June 2019
Temperature: 24.0°C (75°F)
Dewpoint: 15.0°C (59°F) [RH = 57%]
Pressure (altimeter): 30.09 inches Hg (1019.0 mb)
Winds: from the NNE (20 degrees) at 10 MPH (9 knots; 4.6 m/s)
Visibility: 6 or more miles (10+ km)
Ceiling: 30000 feet AGL
Clouds: few clouds at 3800 feet AGL
scattered clouds at 4500 feet AGL
broken clouds at 30000 feet AGL
Weather: no significant weather observed at this time

METAR text: LOWS 171020Z 02006KT 310V070 9999 FEW038 SCT042 BKN300 23/14 Q1020 NOSIG
Conditions at: LOWS (SALZBURG AIRPORT, AT) observed 1020 UTC 17 June 2019
Temperature: 23.0°C (73°F)
Dewpoint: 14.0°C (57°F) [RH = 57%]
Pressure (altimeter): 30.12 inches Hg (1020.0 mb)
Winds: from the NNE (20 degrees) at 7 MPH (6 knots; 3.1 m/s)
Visibility: 6 or more miles (10+ km)
Ceiling: 30000 feet AGL
Clouds: few clouds at 3800 feet AGL
scattered clouds at 4200 feet AGL
broken clouds at 30000 feet AGL
Weather: no significant weather observed at this time

METAR text: LOWS 170950Z 34008KT 320V020 9999 FEW038 SCT050 BKN300 22/14 Q1020 NOSIG
Conditions at: LOWS (SALZBURG AIRPORT, AT) observed 0950 UTC 17 June 2019
Temperature: 22.0°C (72°F)
Dewpoint: 14.0°C (57°F) [RH = 60%]
Pressure (altimeter): 30.12 inches Hg (1020.0 mb)
Winds: from the NNW (340 degrees) at 9 MPH (8 knots; 4.1 m/s)
Visibility: 6 or more miles (10+ km)
Ceiling: 30000 feet AGL
Clouds: few clouds at 3800 feet AGL
scattered clouds at 5000 feet AGL
broken clouds at 30000 feet AGL
Weather: no significant weather observed at this time

METAR text: LOWS 170920Z 36007KT 9999 FEW032 BKN300 22/14 Q1020 NOSIG
Conditions at: LOWS (SALZBURG AIRPORT, AT) observed 0920 UTC 17 June 2019
Temperature: 22.0°C (72°F)
Dewpoint: 14.0°C (57°F) [RH = 60%]
Pressure (altimeter): 30.12 inches Hg (1020.0 mb)
Winds: from the N (360 degrees) at 8 MPH (7 knots; 3.6 m/s)
Visibility: 6 or more miles (10+ km)
Ceiling: 30000 feet AGL
Clouds: few clouds at 3200 feet AGL
broken clouds at 30000 feet AGL
Weather: no significant weather observed at this time

METAR text: LOWS 170850Z 36006KT 9999 FEW028 BKN300 22/15 Q1020 NOSIG
Conditions at: LOWS (SALZBURG AIRPORT, AT) observed 0850 UTC 17 June 2019
Temperature: 22.0°C (72°F)
Dewpoint: 15.0°C (59°F) [RH = 65%]
Pressure (altimeter): 30.12 inches Hg (1020.0 mb)
Winds: from the N (360 degrees) at 7 MPH (6 knots; 3.1 m/s)
Visibility: 6 or more miles (10+ km)
Ceiling: 30000 feet AGL
Clouds: few clouds at 2800 feet AGL
broken clouds at 30000 feet AGL
Weather: no significant weather observed at this time

METAR text: LOWS 170820Z 02004KT 9999 FEW040 BKN300 21/14 Q1021 NOSIG
Conditions at: LOWS (SALZBURG AIRPORT, AT) observed 0820 UTC 17 June 2019
Temperature: 21.0°C (70°F)
Dewpoint: 14.0°C (57°F) [RH = 64%]
Pressure (altimeter): 30.15 inches Hg (1021.0 mb)
Winds: from the NNE (20 degrees) at 5 MPH (4 knots; 2.1 m/s)
Visibility: 6 or more miles (10+ km)
Ceiling: 30000 feet AGL
Clouds: few clouds at 4000 feet AGL
broken clouds at 30000 feet AGL
Weather: no significant weather observed at this time

METAR text: LOWS 170750Z VRB03KT 9999 FEW040 BKN300 20/14 Q1021 NOSIG
Conditions at: LOWS (SALZBURG AIRPORT, AT) observed 0750 UTC 17 June 2019
Temperature: 20.0°C (68°F)
Dewpoint: 14.0°C (57°F) [RH = 68%]
Pressure (altimeter): 30.15 inches Hg (1021.0 mb)
Winds: variable direction winds at 3 MPH (3 knots; 1.5 m/s)
Visibility: 6 or more miles (10+ km)
Ceiling: 30000 feet AGL
Clouds: few clouds at 4000 feet AGL
broken clouds at 30000 feet AGL
Weather: no significant weather observed at this time

METAR text: LOWS 170720Z 08003KT 9999 FEW040 BKN300 19/13 Q1021 NOSIG
Conditions at: LOWS (SALZBURG AIRPORT, AT) observed 0720 UTC 17 June 2019
Temperature: 19.0°C (66°F)
Dewpoint: 13.0°C (55°F) [RH = 68%]
Pressure (altimeter): 30.15 inches Hg (1021.0 mb)
Winds: from the E (80 degrees) at 3 MPH (3 knots; 1.5 m/s)
Visibility: 6 or more miles (10+ km)
Ceiling: 30000 feet AGL
Clouds: few clouds at 4000 feet AGL
broken clouds at 30000 feet AGL
Weather: no significant weather observed at this time

METAR text: LOWS 170650Z 12003KT 9999 FEW040 BKN300 18/13 Q1021 NOSIG
Conditions at: LOWS (SALZBURG AIRPORT, AT) observed 0650 UTC 17 June 2019
Temperature: 18.0°C (64°F)
Dewpoint: 13.0°C (55°F) [RH = 73%]
Pressure (altimeter): 30.15 inches Hg (1021.0 mb)
Winds: from the ESE (120 degrees) at 3 MPH (3 knots; 1.5 m/s)
Visibility: 6 or more miles (10+ km)
Ceiling: 30000 feet AGL
Clouds: few clouds at 4000 feet AGL
broken clouds at 30000 feet AGL
Weather: no significant weather observed at this time

METAR text: LOWS 170620Z 15003KT 9999 FEW045 BKN300 17/13 Q1022 NOSIG
Conditions at: LOWS (SALZBURG AIRPORT, AT) observed 0620 UTC 17 June 2019
Temperature: 17.0°C (63°F)
Dewpoint: 13.0°C (55°F) [RH = 77%]
Pressure (altimeter): 30.18 inches Hg (1022.0 mb)
Winds: from the SSE (150 degrees) at 3 MPH (3 knots; 1.5 m/s)
Visibility: 6 or more miles (10+ km)
Ceiling: 30000 feet AGL
Clouds: few clouds at 4500 feet AGL
broken clouds at 30000 feet AGL
Weather: no significant weather observed at this time

METAR text: LOWS 170550Z 16005KT 9999 FEW045 BKN300 16/12 Q1022 NOSIG
Conditions at: LOWS (SALZBURG AIRPORT, AT) observed 0550 UTC 17 June 2019
Temperature: 16.0°C (61°F)
Dewpoint: 12.0°C (54°F) [RH = 77%]
Pressure (altimeter): 30.18 inches Hg (1022.0 mb)
Winds: from the SSE (160 degrees) at 6 MPH (5 knots; 2.6 m/s)
Visibility: 6 or more miles (10+ km)
Ceiling: 30000 feet AGL
Clouds: few clouds at 4500 feet AGL
broken clouds at 30000 feet AGL
Weather: no significant weather observed at this time

METAR text: LOWS 170520Z VRB02KT 9999 FEW045 BKN300 15/13 Q1022 NOSIG
Conditions at: LOWS (SALZBURG AIRPORT, AT) observed 0520 UTC 17 June 2019
Temperature: 15.0°C (59°F)
Dewpoint: 13.0°C (55°F) [RH = 88%]
Pressure (altimeter): 30.18 inches Hg (1022.0 mb)
Winds: variable direction winds at 2 MPH (2 knots; 1.0 m/s)
Visibility: 6 or more miles (10+ km)
Ceiling: 30000 feet AGL
Clouds: few clouds at 4500 feet AGL
broken clouds at 30000 feet AGL
Weather: no significant weather observed at this time

METAR text: LOWS 170450Z 17002KT 9999 R15/1300D R33/P1500U FEW036 BKN300 14/12 Q1022 NOSIG
Conditions at: LOWS (SALZBURG AIRPORT, AT) observed 0450 UTC 17 June 2019
Temperature: 14.0°C (57°F)
Dewpoint: 12.0°C (54°F) [RH = 88%]
Pressure (altimeter): 30.18 inches Hg (1022.0 mb)
Winds: from the S (170 degrees) at 2 MPH (2 knots; 1.0 m/s)
Visibility: 6 or more miles (10+ km)
Ceiling: 30000 feet AGL
Clouds: few clouds at 3600 feet AGL
broken clouds at 30000 feet AGL
Weather: no significant weather observed at this time

METAR text: LOWS 170420Z 13003KT 9999 FEW036 BKN300 14/12 Q1022 NOSIG
Conditions at: LOWS (SALZBURG AIRPORT, AT) observed 0420 UTC 17 June 2019
Temperature: 14.0°C (57°F)
Dewpoint: 12.0°C (54°F) [RH = 88%]
Pressure (altimeter): 30.18 inches Hg (1022.0 mb)
Winds: from the SE (130 degrees) at 3 MPH (3 knots; 1.5 m/s)
Visibility: 6 or more miles (10+ km)
Ceiling: 30000 feet AGL
Clouds: few clouds at 3600 feet AGL
broken clouds at 30000 feet AGL
Weather: no significant weather observed at this time

METAR text: LOWS 170350Z VRB02KT 9999 FEW035 SCT050 BKN300 14/12 Q1022 NOSIG
Conditions at: LOWS (SALZBURG AIRPORT, AT) observed 0350 UTC 17 June 2019
Temperature: 14.0°C (57°F)
Dewpoint: 12.0°C (54°F) [RH = 88%]
Pressure (altimeter): 30.18 inches Hg (1022.0 mb)
Winds: variable direction winds at 2 MPH (2 knots; 1.0 m/s)
Visibility: 6 or more miles (10+ km)
Ceiling: 30000 feet AGL
Clouds: few clouds at 3500 feet AGL
scattered clouds at 5000 feet AGL
broken clouds at 30000 feet AGL
Weather: no significant weather observed at this time

METAR text: LOWS 170320Z AUTO 16003KT 9999 FEW032 BKN048 14/12 Q1022
Conditions at: LOWS (SALZBURG AIRPORT, AT) observed 0320 UTC 17 June 2019
Temperature: 14.0°C (57°F)
Dewpoint: 12.0°C (54°F) [RH = 88%]
Pressure (altimeter): 30.18 inches Hg (1022.0 mb)
Winds: from the SSE (160 degrees) at 3 MPH (3 knots; 1.5 m/s)
Visibility: 6 or more miles (10+ km)
Ceiling: 4800 feet AGL
Clouds: few clouds at 3200 feet AGL
broken clouds at 4800 feet AGL
Weather: no significant weather observed at this time

METAR text: LOWS 170250Z AUTO VRB02KT 9999 FEW030 SCT032 BKN050 14/12 Q1022
Conditions at: LOWS (SALZBURG AIRPORT, AT) observed 0250 UTC 17 June 2019
Temperature: 14.0°C (57°F)
Dewpoint: 12.0°C (54°F) [RH = 88%]
Pressure (altimeter): 30.18 inches Hg (1022.0 mb)
Winds: variable direction winds at 2 MPH (2 knots; 1.0 m/s)
Visibility: 6 or more miles (10+ km)
Ceiling: 5000 feet AGL
Clouds: few clouds at 3000 feet AGL
scattered clouds at 3200 feet AGL
broken clouds at 5000 feet AGL
Weather: no significant weather observed at this time

METAR text: LOWS 170220Z AUTO VRB02KT 9999 FEW030 SCT032 BKN090 14/12 Q1022
Conditions at: LOWS (SALZBURG AIRPORT, AT) observed 0220 UTC 17 June 2019
Temperature: 14.0°C (57°F)
Dewpoint: 12.0°C (54°F) [RH = 88%]
Pressure (altimeter): 30.18 inches Hg (1022.0 mb)
Winds: variable direction winds at 2 MPH (2 knots; 1.0 m/s)
Visibility: 6 or more miles (10+ km)
Ceiling: 9000 feet AGL
Clouds: few clouds at 3000 feet AGL
scattered clouds at 3200 feet AGL
broken clouds at 9000 feet AGL
Weather: no significant weather observed at this time

METAR text: LOWS 170150Z AUTO 12004KT 090V160 9999 FEW028 BKN090 15/12 Q1022
Conditions at: LOWS (SALZBURG AIRPORT, AT) observed 0150 UTC 17 June 2019
Temperature: 15.0°C (59°F)
Dewpoint: 12.0°C (54°F) [RH = 82%]
Pressure (altimeter): 30.18 inches Hg (1022.0 mb)
Winds: from the ESE (120 degrees) at 5 MPH (4 knots; 2.1 m/s)
Visibility: 6 or more miles (10+ km)
Ceiling: 9000 feet AGL
Clouds: few clouds at 2800 feet AGL
broken clouds at 9000 feet AGL
Weather: no significant weather observed at this time

METAR text: LOWS 170120Z AUTO 14003KT 110V170 9999 OVC090 15/13 Q1022
Conditions at: LOWS (SALZBURG AIRPORT, AT) observed 0120 UTC 17 June 2019
Temperature: 15.0°C (59°F)
Dewpoint: 13.0°C (55°F) [RH = 88%]
Pressure (altimeter): 30.18 inches Hg (1022.0 mb)
Winds: from the SE (140 degrees) at 3 MPH (3 knots; 1.5 m/s)
Visibility: 6 or more miles (10+ km)
Ceiling: 9000 feet AGL
Clouds: overcast cloud deck at 9000 feet AGL
Weather: no significant weather observed at this time

METAR text: LOWS 170050Z AUTO 16004KT 9999 FEW070 BKN090 15/12 Q1022
Conditions at: LOWS (SALZBURG AIRPORT, AT) observed 0050 UTC 17 June 2019
Temperature: 15.0°C (59°F)
Dewpoint: 12.0°C (54°F) [RH = 82%]
Pressure (altimeter): 30.18 inches Hg (1022.0 mb)
Winds: from the SSE (160 degrees) at 5 MPH (4 knots; 2.1 m/s)
Visibility: 6 or more miles (10+ km)
Ceiling: 9000 feet AGL
Clouds: few clouds at 7000 feet AGL
broken clouds at 9000 feet AGL
Weather: no significant weather observed at this time

METAR text: LOWS 170020Z AUTO 16004KT 9999 SCT090 15/13 Q1022
Conditions at: LOWS (SALZBURG AIRPORT, AT) observed 0020 UTC 17 June 2019
Temperature: 15.0°C (59°F)
Dewpoint: 13.0°C (55°F) [RH = 88%]
Pressure (altimeter): 30.18 inches Hg (1022.0 mb)
Winds: from the SSE (160 degrees) at 5 MPH (4 knots; 2.1 m/s)
Visibility: 6 or more miles (10+ km)
Ceiling: at least 12,000 feet AGL
Clouds: scattered clouds at 9000 feet AGL
Weather: no significant weather observed at this time

METAR text: LOWS 162350Z AUTO 19005KT 9999 FEW070 OVC090 15/13 Q1022
Conditions at: LOWS (SALZBURG AIRPORT, AT) observed 2350 UTC 16 June 2019
Temperature: 15.0°C (59°F)
Dewpoint: 13.0°C (55°F) [RH = 88%]
Pressure (altimeter): 30.18 inches Hg (1022.0 mb)
Winds: from the S (190 degrees) at 6 MPH (5 knots; 2.6 m/s)
Visibility: 6 or more miles (10+ km)
Ceiling: 9000 feet AGL
Clouds: few clouds at 7000 feet AGL
overcast cloud deck at 9000 feet AGL
Weather: no significant weather observed at this time

METAR text: LOWS 162320Z AUTO 14004KT 9999 FEW060 BKN070 16/13 Q1022
Conditions at: LOWS (SALZBURG AIRPORT, AT) observed 2320 UTC 16 June 2019
Temperature: 16.0°C (61°F)
Dewpoint: 13.0°C (55°F) [RH = 82%]
Pressure (altimeter): 30.18 inches Hg (1022.0 mb)
Winds: from the SE (140 degrees) at 5 MPH (4 knots; 2.1 m/s)
Visibility: 6 or more miles (10+ km)
Ceiling: 7000 feet AGL
Clouds: few clouds at 6000 feet AGL
broken clouds at 7000 feet AGL
Weather: no significant weather observed at this time

METAR text: LOWS 162250Z AUTO 16003KT 120V190 9999 FEW060 OVC090 16/13 Q1022
Conditions at: LOWS (SALZBURG AIRPORT, AT) observed 2250 UTC 16 June 2019
Temperature: 16.0°C (61°F)
Dewpoint: 13.0°C (55°F) [RH = 82%]
Pressure (altimeter): 30.18 inches Hg (1022.0 mb)
Winds: from the SSE (160 degrees) at 3 MPH (3 knots; 1.5 m/s)
Visibility: 6 or more miles (10+ km)
Ceiling: 9000 feet AGL
Clouds: few clouds at 6000 feet AGL
overcast cloud deck at 9000 feet AGL
Weather: no significant weather observed at this time

METAR text: LOWS 162220Z AUTO 15006KT 9999 OVC090 16/13 Q1023
Conditions at: LOWS (SALZBURG AIRPORT, AT) observed 2220 UTC 16 June 2019
Temperature: 16.0°C (61°F)
Dewpoint: 13.0°C (55°F) [RH = 82%]
Pressure (altimeter): 30.21 inches Hg (1023.0 mb)
Winds: from the SSE (150 degrees) at 7 MPH (6 knots; 3.1 m/s)
Visibility: 6 or more miles (10+ km)
Ceiling: 9000 feet AGL
Clouds: overcast cloud deck at 9000 feet AGL
Weather: no significant weather observed at this time

METAR text: LOWS 162150Z AUTO 16005KT 9999 FEW060 OVC090 16/13 Q1022
Conditions at: LOWS (SALZBURG AIRPORT, AT) observed 2150 UTC 16 June 2019
Temperature: 16.0°C (61°F)
Dewpoint: 13.0°C (55°F) [RH = 82%]
Pressure (altimeter): 30.18 inches Hg (1022.0 mb)
Winds: from the SSE (160 degrees) at 6 MPH (5 knots; 2.6 m/s)
Visibility: 6 or more miles (10+ km)
Ceiling: 9000 feet AGL
Clouds: few clouds at 6000 feet AGL
overcast cloud deck at 9000 feet AGL
Weather: no significant weather observed at this time

METAR text: LOWS 162120Z AUTO 16005KT 9999 FEW048 OVC090 17/13 Q1023
Conditions at: LOWS (SALZBURG AIRPORT, AT) observed 2120 UTC 16 June 2019
Temperature: 17.0°C (63°F)
Dewpoint: 13.0°C (55°F) [RH = 77%]
Pressure (altimeter): 30.21 inches Hg (1023.0 mb)
Winds: from the SSE (160 degrees) at 6 MPH (5 knots; 2.6 m/s)
Visibility: 6 or more miles (10+ km)
Ceiling: 9000 feet AGL
Clouds: few clouds at 4800 feet AGL
overcast cloud deck at 9000 feet AGL
Weather: no significant weather observed at this time

METAR text: LOWS 162050Z 15005KT 9999 FEW040 BKN060 17/13 Q1023
Conditions at: LOWS (SALZBURG AIRPORT, AT) observed 2050 UTC 16 June 2019
Temperature: 17.0°C (63°F)
Dewpoint: 13.0°C (55°F) [RH = 77%]
Pressure (altimeter): 30.21 inches Hg (1023.0 mb)
Winds: from the SSE (150 degrees) at 6 MPH (5 knots; 2.6 m/s)
Visibility: 6 or more miles (10+ km)
Ceiling: 6000 feet AGL
Clouds: few clouds at 4000 feet AGL
broken clouds at 6000 feet AGL
Weather: no significant weather observed at this time

METAR text: LOWS 162020Z 15006KT 9999 SCT050 BKN090 17/13 Q1022 NOSIG
Conditions at: LOWS (SALZBURG AIRPORT, AT) observed 2020 UTC 16 June 2019
Temperature: 17.0°C (63°F)
Dewpoint: 13.0°C (55°F) [RH = 77%]
Pressure (altimeter): 30.18 inches Hg (1022.0 mb)
Winds: from the SSE (150 degrees) at 7 MPH (6 knots; 3.1 m/s)
Visibility: 6 or more miles (10+ km)
Ceiling: 9000 feet AGL
Clouds: scattered clouds at 5000 feet AGL
broken clouds at 9000 feet AGL
Weather: no significant weather observed at this time

METAR text: LOWS 161950Z 15005KT 9999 FEW060 BKN080 17/13 Q1022 NOSIG
Conditions at: LOWS (SALZBURG AIRPORT, AT) observed 1950 UTC 16 June 2019
Temperature: 17.0°C (63°F)
Dewpoint: 13.0°C (55°F) [RH = 77%]
Pressure (altimeter): 30.18 inches Hg (1022.0 mb)
Winds: from the SSE (150 degrees) at 6 MPH (5 knots; 2.6 m/s)
Visibility: 6 or more miles (10+ km)
Ceiling: 8000 feet AGL
Clouds: few clouds at 6000 feet AGL
broken clouds at 8000 feet AGL
Weather: no significant weather observed at this time

METAR text: LOWS 161920Z 14006KT 9999 FEW050 BKN070 17/13 Q1022 NOSIG
Conditions at: LOWS (SALZBURG AIRPORT, AT) observed 1920 UTC 16 June 2019
Temperature: 17.0°C (63°F)
Dewpoint: 13.0°C (55°F) [RH = 77%]
Pressure (altimeter): 30.18 inches Hg (1022.0 mb)
Winds: from the SE (140 degrees) at 7 MPH (6 knots; 3.1 m/s)
Visibility: 6 or more miles (10+ km)
Ceiling: 7000 feet AGL
Clouds: few clouds at 5000 feet AGL
broken clouds at 7000 feet AGL
Weather: no significant weather observed at this time

METAR text: LOWS 161850Z 14006KT 9999 FEW060 BKN080 17/13 Q1022 NOSIG
Conditions at: LOWS (SALZBURG AIRPORT, AT) observed 1850 UTC 16 June 2019
Temperature: 17.0°C (63°F)
Dewpoint: 13.0°C (55°F) [RH = 77%]
Pressure (altimeter): 30.18 inches Hg (1022.0 mb)
Winds: from the SE (140 degrees) at 7 MPH (6 knots; 3.1 m/s)
Visibility: 6 or more miles (10+ km)
Ceiling: 8000 feet AGL
Clouds: few clouds at 6000 feet AGL
broken clouds at 8000 feet AGL
Weather: no significant weather observed at this time

METAR text: LOWS 161820Z 14006KT 9999 FEW060 BKN080 18/13 Q1022 NOSIG
Conditions at: LOWS (SALZBURG AIRPORT, AT) observed 1820 UTC 16 June 2019
Temperature: 18.0°C (64°F)
Dewpoint: 13.0°C (55°F) [RH = 73%]
Pressure (altimeter): 30.18 inches Hg (1022.0 mb)
Winds: from the SE (140 degrees) at 7 MPH (6 knots; 3.1 m/s)
Visibility: 6 or more miles (10+ km)
Ceiling: 8000 feet AGL
Clouds: few clouds at 6000 feet AGL
broken clouds at 8000 feet AGL
Weather: no significant weather observed at this time

METAR text: LOWS 161750Z 14008KT 9999 FEW045 BKN070 18/13 Q1022 NOSIG
Conditions at: LOWS (SALZBURG AIRPORT, AT) observed 1750 UTC 16 June 2019
Temperature: 18.0°C (64°F)
Dewpoint: 13.0°C (55°F) [RH = 73%]
Pressure (altimeter): 30.18 inches Hg (1022.0 mb)
Winds: from the SE (140 degrees) at 9 MPH (8 knots; 4.1 m/s)
Visibility: 6 or more miles (10+ km)
Ceiling: 7000 feet AGL
Clouds: few clouds at 4500 feet AGL
broken clouds at 7000 feet AGL
Weather: no significant weather observed at this time

METAR text: LOWS 161720Z 15009KT 9999 FEW045 BKN060 18/14 Q1022 NOSIG
Conditions at: LOWS (SALZBURG AIRPORT, AT) observed 1720 UTC 16 June 2019
Temperature: 18.0°C (64°F)
Dewpoint: 14.0°C (57°F) [RH = 77%]
Pressure (altimeter): 30.18 inches Hg (1022.0 mb)
Winds: from the SSE (150 degrees) at 10 MPH (9 knots; 4.6 m/s)
Visibility: 6 or more miles (10+ km)
Ceiling: 6000 feet AGL
Clouds: few clouds at 4500 feet AGL
broken clouds at 6000 feet AGL
Weather: no significant weather observed at this time

METAR text: LOWS 161650Z 13008KT 9999 FEW042 BKN055 18/13 Q1022 NOSIG
Conditions at: LOWS (SALZBURG AIRPORT, AT) observed 1650 UTC 16 June 2019
Temperature: 18.0°C (64°F)
Dewpoint: 13.0°C (55°F) [RH = 73%]
Pressure (altimeter): 30.18 inches Hg (1022.0 mb)
Winds: from the SE (130 degrees) at 9 MPH (8 knots; 4.1 m/s)
Visibility: 6 or more miles (10+ km)
Ceiling: 5500 feet AGL
Clouds: few clouds at 4200 feet AGL
broken clouds at 5500 feet AGL
Weather: no significant weather observed at this time

METAR text: LOWS 161620Z 14006KT 9999 -SHRA FEW042 BKN050 18/13 Q1022 NOSIG
Conditions at: LOWS (SALZBURG AIRPORT, AT) observed 1620 UTC 16 June 2019
Temperature: 18.0°C (64°F)
Dewpoint: 13.0°C (55°F) [RH = 73%]
Pressure (altimeter): 30.18 inches Hg (1022.0 mb)
Winds: from the SE (140 degrees) at 7 MPH (6 knots; 3.1 m/s)
Visibility: 6 or more miles (10+ km)
Ceiling: 5000 feet AGL
Clouds: few clouds at 4200 feet AGL
broken clouds at 5000 feet AGL
Weather: -SHRA  (light rain showers)

METAR text: LOWS 161550Z 15005KT 110V170 9999 FEW040 BKN050 18/13 Q1022 NOSIG
Conditions at: LOWS (SALZBURG AIRPORT, AT) observed 1550 UTC 16 June 2019
Temperature: 18.0°C (64°F)
Dewpoint: 13.0°C (55°F) [RH = 73%]
Pressure (altimeter): 30.18 inches Hg (1022.0 mb)
Winds: from the SSE (150 degrees) at 6 MPH (5 knots; 2.6 m/s)
Visibility: 6 or more miles (10+ km)
Ceiling: 5000 feet AGL
Clouds: few clouds at 4000 feet AGL
broken clouds at 5000 feet AGL
Weather: no significant weather observed at this time

METAR text: LOWS 161520Z 15006KT 9999 SCT040 BKN050 19/13 Q1021 NOSIG
Conditions at: LOWS (SALZBURG AIRPORT, AT) observed 1520 UTC 16 June 2019
Temperature: 19.0°C (66°F)
Dewpoint: 13.0°C (55°F) [RH = 68%]
Pressure (altimeter): 30.15 inches Hg (1021.0 mb)
Winds: from the SSE (150 degrees) at 7 MPH (6 knots; 3.1 m/s)
Visibility: 6 or more miles (10+ km)
Ceiling: 5000 feet AGL
Clouds: scattered clouds at 4000 feet AGL
broken clouds at 5000 feet AGL
Weather: no significant weather observed at this time

METAR text: LOWS 161450Z VRB01KT 9999 SCT032 BKN060 19/13 Q1022 NOSIG
Conditions at: LOWS (SALZBURG AIRPORT, AT) observed 1450 UTC 16 June 2019
Temperature: 19.0°C (66°F)
Dewpoint: 13.0°C (55°F) [RH = 68%]
Pressure (altimeter): 30.18 inches Hg (1022.0 mb)
Winds: variable direction winds at 1 MPH (1 knots; 0.5 m/s)
Visibility: 6 or more miles (10+ km)
Ceiling: 6000 feet AGL
Clouds: scattered clouds at 3200 feet AGL
broken clouds at 6000 feet AGL
Weather: no significant weather observed at this time

METAR text: LOWS 161420Z 02004KT 9999 SCT032 BKN060 19/13 Q1021 NOSIG
Conditions at: LOWS (SALZBURG AIRPORT, AT) observed 1420 UTC 16 June 2019
Temperature: 19.0°C (66°F)
Dewpoint: 13.0°C (55°F) [RH = 68%]
Pressure (altimeter): 30.15 inches Hg (1021.0 mb)
Winds: from the NNE (20 degrees) at 5 MPH (4 knots; 2.1 m/s)
Visibility: 6 or more miles (10+ km)
Ceiling: 6000 feet AGL
Clouds: scattered clouds at 3200 feet AGL
broken clouds at 6000 feet AGL
Weather: no significant weather observed at this time

METAR text: LOWS 161350Z 34004KT 300V020 9999 FEW032 BKN050 20/13 Q1021 NOSIG
Conditions at: LOWS (SALZBURG AIRPORT, AT) observed 1350 UTC 16 June 2019
Temperature: 20.0°C (68°F)
Dewpoint: 13.0°C (55°F) [RH = 64%]
Pressure (altimeter): 30.15 inches Hg (1021.0 mb)
Winds: from the NNW (340 degrees) at 5 MPH (4 knots; 2.1 m/s)
Visibility: 6 or more miles (10+ km)
Ceiling: 5000 feet AGL
Clouds: few clouds at 3200 feet AGL
broken clouds at 5000 feet AGL
Weather: no significant weather observed at this time

METAR text: LOWS 161320Z 01005KT 330V030 9999 FEW030 BKN050 19/13 Q1021 NOSIG
Conditions at: LOWS (SALZBURG AIRPORT, AT) observed 1320 UTC 16 June 2019
Temperature: 19.0°C (66°F)
Dewpoint: 13.0°C (55°F) [RH = 68%]
Pressure (altimeter): 30.15 inches Hg (1021.0 mb)
Winds: from the N (10 degrees) at 6 MPH (5 knots; 2.6 m/s)
Visibility: 6 or more miles (10+ km)
Ceiling: 5000 feet AGL
Clouds: few clouds at 3000 feet AGL
broken clouds at 5000 feet AGL
Weather: no significant weather observed at this time

METAR text: LOWS 161250Z 29008KT 9999 FEW030 BKN050 20/13 Q1021 NOSIG
Conditions at: LOWS (SALZBURG AIRPORT, AT) observed 1250 UTC 16 June 2019
Temperature: 20.0°C (68°F)
Dewpoint: 13.0°C (55°F) [RH = 64%]
Pressure (altimeter): 30.15 inches Hg (1021.0 mb)
Winds: from the WNW (290 degrees) at 9 MPH (8 knots; 4.1 m/s)
Visibility: 6 or more miles (10+ km)
Ceiling: 5000 feet AGL
Clouds: few clouds at 3000 feet AGL
broken clouds at 5000 feet AGL
Weather: no significant weather observed at this time

METAR text: LOWS 161220Z 30008KT 9999 FEW030 SCT042 BKN050 20/12 Q1021 NOSIG
Conditions at: LOWS (SALZBURG AIRPORT, AT) observed 1220 UTC 16 June 2019
Temperature: 20.0°C (68°F)
Dewpoint: 12.0°C (54°F) [RH = 60%]
Pressure (altimeter): 30.15 inches Hg (1021.0 mb)
Winds: from the WNW (300 degrees) at 9 MPH (8 knots; 4.1 m/s)
Visibility: 6 or more miles (10+ km)
Ceiling: 5000 feet AGL
Clouds: few clouds at 3000 feet AGL
scattered clouds at 4200 feet AGL
broken clouds at 5000 feet AGL
Weather: no significant weather observed at this time

METAR text: LOWS 161150Z 32009KT 290V350 9999 FEW030 SCT042 BKN050 20/12 Q1022 NOSIG
Conditions at: LOWS (SALZBURG AIRPORT, AT) observed 1150 UTC 16 June 2019
Temperature: 20.0°C (68°F)
Dewpoint: 12.0°C (54°F) [RH = 60%]
Pressure (altimeter): 30.18 inches Hg (1022.0 mb)
Winds: from the NW (320 degrees) at 10 MPH (9 knots; 4.6 m/s)
Visibility: 6 or more miles (10+ km)
Ceiling: 5000 feet AGL
Clouds: few clouds at 3000 feet AGL
scattered clouds at 4200 feet AGL
broken clouds at 5000 feet AGL
Weather: no significant weather observed at this time

METAR text: LOWS 161120Z 32009KT 280V340 9999 FEW030 SCT035 BKN045 20/13 Q1022 NOSIG
Conditions at: LOWS (SALZBURG AIRPORT, AT) observed 1120 UTC 16 June 2019
Temperature: 20.0°C (68°F)
Dewpoint: 13.0°C (55°F) [RH = 64%]
Pressure (altimeter): 30.18 inches Hg (1022.0 mb)
Winds: from the NW (320 degrees) at 10 MPH (9 knots; 4.6 m/s)
Visibility: 6 or more miles (10+ km)
Ceiling: 4500 feet AGL
Clouds: few clouds at 3000 feet AGL
scattered clouds at 3500 feet AGL
broken clouds at 4500 feet AGL
Weather: no significant weather observed at this time

METAR text: LOWS 161050Z 31010KT 9999 FEW026 SCT035 BKN045 19/13 Q1022 NOSIG
Conditions at: LOWS (SALZBURG AIRPORT, AT) observed 1050 UTC 16 June 2019
Temperature: 19.0°C (66°F)
Dewpoint: 13.0°C (55°F) [RH = 68%]
Pressure (altimeter): 30.18 inches Hg (1022.0 mb)
Winds: from the NW (310 degrees) at 12 MPH (10 knots; 5.1 m/s)
Visibility: 6 or more miles (10+ km)
Ceiling: 4500 feet AGL
Clouds: few clouds at 2600 feet AGL
scattered clouds at 3500 feet AGL
broken clouds at 4500 feet AGL
Weather: no significant weather observed at this time

METAR text: LOWS 161020Z 32009KT 290V360 9999 FEW026 SCT030 BKN050 19/13 Q1022 NOSIG
Conditions at: LOWS (SALZBURG AIRPORT, AT) observed 1020 UTC 16 June 2019
Temperature: 19.0°C (66°F)
Dewpoint: 13.0°C (55°F) [RH = 68%]
Pressure (altimeter): 30.18 inches Hg (1022.0 mb)
Winds: from the NW (320 degrees) at 10 MPH (9 knots; 4.6 m/s)
Visibility: 6 or more miles (10+ km)
Ceiling: 5000 feet AGL
Clouds: few clouds at 2600 feet AGL
scattered clouds at 3000 feet AGL
broken clouds at 5000 feet AGL
Weather: no significant weather observed at this time

METAR text: LOWS 160950Z 33009KT 9999 FEW030 BKN050 19/12 Q1022 NOSIG
Conditions at: LOWS (SALZBURG AIRPORT, AT) observed 0950 UTC 16 June 2019
Temperature: 19.0°C (66°F)
Dewpoint: 12.0°C (54°F) [RH = 64%]
Pressure (altimeter): 30.18 inches Hg (1022.0 mb)
Winds: from the NNW (330 degrees) at 10 MPH (9 knots; 4.6 m/s)
Visibility: 6 or more miles (10+ km)
Ceiling: 5000 feet AGL
Clouds: few clouds at 3000 feet AGL
broken clouds at 5000 feet AGL
Weather: no significant weather observed at this time

Forecast for: LOWS (SALZBURG AIRPORT, AT)
Text: TAF LOWS 171715Z 1718/1818 15005KT CAVOK TX28/1815Z TN14/1803Z
Forecast period: 1800 UTC 17 June 2019 to 0700 UTC 18 June 2019
Forecast type: FROM: standard forecast or significant change
Winds: from the SSE (150 degrees) at 6 MPH (5 knots; 2.6 m/s)
Visibility: 6 or more miles 10+ km)
Ceiling: unknown
Clouds: missing
Weather: no significant weather forecast for this period
Text: TEMPO 1718/1719 05008KT
Forecast period: 1800 to 1900 UTC 17 June 2019
Forecast type: TEMPORARY: The following changes expected for less than half the time period
Winds: from the NE (50 degrees) at 9 MPH (8 knots; 4.1 m/s)
Visibility: missing
Ceiling: unknown
Clouds: missing
Weather: no significant weather forecast for this period
Text: BECMG 1807/1809 03005KT 9999 FEW050 BKN300
Forecast period: 0700 to 1800 UTC 18 June 2019
Forecast type: BECOMING: Conditions expected to become as follows by 0900 UTC 18 June 2019
Winds: from the NNE (30 degrees) at 6 MPH (5 knots; 2.6 m/s)
Visibility: 6 or more miles 10+ km)
Ceiling: 30000 feet AGL
Clouds: few clouds at 5000 feet AGL
broken clouds at 30000 feet AGL
Weather: no significant weather forecast for this period